sensor_id;sensor_type;location;lat;lon;timestamp;pressure;altitude;pressure_sealevel;temperature
6454;BMP180;3260;52.438;13.502;2022-08-21T04:02:39;100860.00;;;20.50
6454;BMP180;3260;52.438;13.502;2022-08-21T04:05:08;100845.00;;;20.50
6454;BMP180;3260;52.438;13.502;2022-08-21T04:07:36;100864.00;;;20.40
6454;BMP180;3260;52.438;13.502;2022-08-21T04:10:06;100857.00;;;20.50
6454;BMP180;3260;52.438;13.502;2022-08-21T04:15:14;100868.00;;;20.40
6454;BMP180;3260;52.438;13.502;2022-08-21T04:17:44;100873.00;;;20.40
6454;BMP180;3260;52.438;13.502;2022-08-21T04:20:13;100869.00;;;20.40
6454;BMP180;3260;52.438;13.502;2022-08-21T04:22:41;100870.00;;;20.20
6454;BMP180;3260;52.438;13.502;2022-08-21T04:25:09;100860.00;;;20.30
6454;BMP180;3260;52.438;13.502;2022-08-21T04:27:37;100859.00;;;20.40
6454;BMP180;3260;52.438;13.502;2022-08-21T04:30:08;100866.00;;;20.60
6454;BMP180;3260;52.438;13.502;2022-08-21T04:32:37;100861.00;;;20.00
6454;BMP180;3260;52.438;13.502;2022-08-21T04:35:13;100863.00;;;20.10
6454;BMP180;3260;52.438;13.502;2022-08-21T04:37:42;100864.00;;;20.20
6454;BMP180;3260;52.438;13.502;2022-08-21T04:40:13;100856.00;;;19.90
6454;BMP180;3260;52.438;13.502;2022-08-21T04:42:45;100864.00;;;20.00
6454;BMP180;3260;52.438;13.502;2022-08-21T04:45:20;100864.00;;;19.80
6454;BMP180;3260;52.438;13.502;2022-08-21T04:47:50;100869.00;;;19.80
6454;BMP180;3260;52.438;13.502;2022-08-21T04:50:26;100867.00;;;20.40
6454;BMP180;3260;52.438;13.502;2022-08-21T04:52:56;100865.00;;;20.60
6454;BMP180;3260;52.438;13.502;2022-08-21T04:55:25;100867.00;;;20.70
6454;BMP180;3260;52.438;13.502;2022-08-21T04:57:55;100864.00;;;20.50
6454;BMP180;3260;52.438;13.502;2022-08-21T05:00:25;100864.00;;;20.90
6454;BMP180;3260;52.438;13.502;2022-08-21T05:02:55;100877.00;;;20.50
6454;BMP180;3260;52.438;13.502;2022-08-21T05:05:29;100876.00;;;20.70
6454;BMP180;3260;52.438;13.502;2022-08-21T05:07:59;100872.00;;;20.40
6454;BMP180;3260;52.438;13.502;2022-08-21T05:10:29;100874.00;;;20.60
6454;BMP180;3260;52.438;13.502;2022-08-21T05:12:58;100875.00;;;20.70
6454;BMP180;3260;52.438;13.502;2022-08-21T05:15:27;100875.00;;;20.80
6454;BMP180;3260;52.438;13.502;2022-08-21T05:17:57;100882.00;;;20.90
6454;BMP180;3260;52.438;13.502;2022-08-21T05:20:29;100881.00;;;20.80
6454;BMP180;3260;52.438;13.502;2022-08-21T05:22:57;100876.00;;;21.10
6454;BMP180;3260;52.438;13.502;2022-08-21T05:25:25;100885.00;;;20.90
6454;BMP180;3260;52.438;13.502;2022-08-21T05:27:54;100884.00;;;21.30
6454;BMP180;3260;52.438;13.502;2022-08-21T05:30:26;100886.00;;;21.30
6454;BMP180;3260;52.438;13.502;2022-08-21T05:32:57;100889.00;;;21.50
6454;BMP180;3260;52.438;13.502;2022-08-21T05:35:28;100881.00;;;21.60
6454;BMP180;3260;52.438;13.502;2022-08-21T05:37:58;100895.00;;;21.90
6454;BMP180;3260;52.438;13.502;2022-08-21T05:40:27;100889.00;;;21.60
6454;BMP180;3260;52.438;13.502;2022-08-21T05:42:56;100885.00;;;21.50
6454;BMP180;3260;52.438;13.502;2022-08-21T05:45:29;100891.00;;;21.60
6454;BMP180;3260;52.438;13.502;2022-08-21T05:48:12;100897.00;;;21.30
6454;BMP180;3260;52.438;13.502;2022-08-21T05:50:44;100884.00;;;21.40
6454;BMP180;3260;52.438;13.502;2022-08-21T05:53:12;100886.00;;;21.00
6454;BMP180;3260;52.438;13.502;2022-08-21T05:55:42;100896.00;;;21.20
6454;BMP180;3260;52.438;13.502;2022-08-21T05:58:14;100892.00;;;21.50
6454;BMP180;3260;52.438;13.502;2022-08-21T06:00:44;100892.00;;;21.20
6454;BMP180;3260;52.438;13.502;2022-08-21T06:03:15;100899.00;;;21.60
6454;BMP180;3260;52.438;13.502;2022-08-21T06:05:45;100902.00;;;21.20
6454;BMP180;3260;52.438;13.502;2022-08-21T06:08:13;100897.00;;;21.10
6454;BMP180;3260;52.438;13.502;2022-08-21T06:10:42;100896.00;;;21.30
6454;BMP180;3260;52.438;13.502;2022-08-21T06:13:11;100897.00;;;21.10
6454;BMP180;3260;52.438;13.502;2022-08-21T06:15:40;100893.00;;;21.30
6454;BMP180;3260;52.438;13.502;2022-08-21T06:18:09;100900.00;;;21.30
6454;BMP180;3260;52.438;13.502;2022-08-21T06:20:38;100880.00;;;22.20
6454;BMP180;3260;52.438;13.502;2022-08-21T06:23:08;100898.00;;;22.00
6454;BMP180;3260;52.438;13.502;2022-08-21T06:25:36;100906.00;;;21.90
6454;BMP180;3260;52.438;13.502;2022-08-21T06:28:07;100904.00;;;22.30
6454;BMP180;3260;52.438;13.502;2022-08-21T06:30:38;100907.00;;;22.30
6454;BMP180;3260;52.438;13.502;2022-08-21T06:33:07;100907.00;;;22.20
6454;BMP180;3260;52.438;13.502;2022-08-21T06:35:35;100911.00;;;22.00
6454;BMP180;3260;52.438;13.502;2022-08-21T06:38:08;100911.00;;;22.50
6454;BMP180;3260;52.438;13.502;2022-08-21T06:40:37;100906.00;;;22.00
6454;BMP180;3260;52.438;13.502;2022-08-21T06:43:16;100915.00;;;22.60
6454;BMP180;3260;52.438;13.502;2022-08-21T06:45:44;100910.00;;;22.30
6454;BMP180;3260;52.438;13.502;2022-08-21T06:48:13;100905.00;;;22.50
6454;BMP180;3260;52.438;13.502;2022-08-21T06:50:45;100908.00;;;22.80
6454;BMP180;3260;52.438;13.502;2022-08-21T06:53:20;100918.00;;;22.80
6454;BMP180;3260;52.438;13.502;2022-08-21T06:55:48;100917.00;;;22.70
6454;BMP180;3260;52.438;13.502;2022-08-21T06:58:17;100915.00;;;22.50
6454;BMP180;3260;52.438;13.502;2022-08-21T07:00:49;100901.00;;;23.00
6454;BMP180;3260;52.438;13.502;2022-08-21T07:03:27;100904.00;;;23.00
6454;BMP180;3260;52.438;13.502;2022-08-21T07:05:56;100913.00;;;23.20
6454;BMP180;3260;52.438;13.502;2022-08-21T07:08:27;100910.00;;;23.10
6454;BMP180;3260;52.438;13.502;2022-08-21T07:11:00;100906.00;;;23.80
6454;BMP180;3260;52.438;13.502;2022-08-21T07:13:29;100906.00;;;23.10
6454;BMP180;3260;52.438;13.502;2022-08-21T07:15:57;100903.00;;;23.70
6454;BMP180;3260;52.438;13.502;2022-08-21T07:18:30;100902.00;;;24.50
6454;BMP180;3260;52.438;13.502;2022-08-21T07:21:00;100910.00;;;24.00
6454;BMP180;3260;52.438;13.502;2022-08-21T07:23:34;100903.00;;;24.30
6454;BMP180;3260;52.438;13.502;2022-08-21T07:26:04;100915.00;;;24.60
6454;BMP180;3260;52.438;13.502;2022-08-21T07:28:33;100904.00;;;24.60
6454;BMP180;3260;52.438;13.502;2022-08-21T07:31:02;100906.00;;;24.40
6454;BMP180;3260;52.438;13.502;2022-08-21T07:33:34;100901.00;;;24.10
6454;BMP180;3260;52.438;13.502;2022-08-21T07:36:03;100897.00;;;24.30
6454;BMP180;3260;52.438;13.502;2022-08-21T07:38:33;100893.00;;;23.80
6454;BMP180;3260;52.438;13.502;2022-08-21T07:41:07;100898.00;;;24.00
6454;BMP180;3260;52.438;13.502;2022-08-21T07:43:40;100892.00;;;23.90
6454;BMP180;3260;52.438;13.502;2022-08-21T07:46:12;100897.00;;;24.20
6454;BMP180;3260;52.438;13.502;2022-08-21T07:48:41;100904.00;;;24.00
6454;BMP180;3260;52.438;13.502;2022-08-21T07:51:13;100906.00;;;24.20
6454;BMP180;3260;52.438;13.502;2022-08-21T07:53:48;100903.00;;;24.30
6454;BMP180;3260;52.438;13.502;2022-08-21T07:56:18;100893.00;;;24.50
6454;BMP180;3260;52.438;13.502;2022-08-21T07:58:47;100904.00;;;24.90
6454;BMP180;3260;52.438;13.502;2022-08-21T08:01:16;100897.00;;;25.10
6454;BMP180;3260;52.438;13.502;2022-08-21T08:03:45;100903.00;;;24.50
6454;BMP180;3260;52.438;13.502;2022-08-21T08:06:14;100898.00;;;24.60
6454;BMP180;3260;52.438;13.502;2022-08-21T08:08:45;100903.00;;;25.40
6454;BMP180;3260;52.438;13.502;2022-08-21T08:11:13;100901.00;;;25.20
6454;BMP180;3260;52.438;13.502;2022-08-21T08:13:46;100900.00;;;25.40
6454;BMP180;3260;52.438;13.502;2022-08-21T08:16:15;100897.00;;;25.40
6454;BMP180;3260;52.438;13.502;2022-08-21T08:18:44;100892.00;;;25.50
6454;BMP180;3260;52.438;13.502;2022-08-21T08:21:13;100900.00;;;25.50
6454;BMP180;3260;52.438;13.502;2022-08-21T08:23:41;100900.00;;;25.30
6454;BMP180;3260;52.438;13.502;2022-08-21T08:26:12;100908.00;;;25.40
6454;BMP180;3260;52.438;13.502;2022-08-21T08:28:42;100915.00;;;25.40
6454;BMP180;3260;52.438;13.502;2022-08-21T08:31:10;100909.00;;;25.80
6454;BMP180;3260;52.438;13.502;2022-08-21T08:33:39;100902.00;;;25.80
6454;BMP180;3260;52.438;13.502;2022-08-21T08:36:13;100907.00;;;26.20
6454;BMP180;3260;52.438;13.502;2022-08-21T08:38:42;100913.00;;;26.30
6454;BMP180;3260;52.438;13.502;2022-08-21T08:41:15;100903.00;;;26.60
6454;BMP180;3260;52.438;13.502;2022-08-21T08:43:50;100909.00;;;26.20
6454;BMP180;3260;52.438;13.502;2022-08-21T08:46:29;100918.00;;;27.00
6454;BMP180;3260;52.438;13.502;2022-08-21T08:49:06;100913.00;;;26.30
6454;BMP180;3260;52.438;13.502;2022-08-21T08:51:44;100915.00;;;26.40
6454;BMP180;3260;52.438;13.502;2022-08-21T08:54:17;100914.00;;;26.60
6454;BMP180;3260;52.438;13.502;2022-08-21T08:56:48;100901.00;;;26.90
6454;BMP180;3260;52.438;13.502;2022-08-21T08:59:25;100914.00;;;27.00
6454;BMP180;3260;52.438;13.502;2022-08-21T09:01:54;100900.00;;;26.90
6454;BMP180;3260;52.438;13.502;2022-08-21T09:04:26;100903.00;;;27.40
6454;BMP180;3260;52.438;13.502;2022-08-21T09:07:12;100913.00;;;27.50
6454;BMP180;3260;52.438;13.502;2022-08-21T09:09:58;100903.00;;;27.70
6454;BMP180;3260;52.438;13.502;2022-08-21T09:12:45;100904.00;;;28.10
6454;BMP180;3260;52.438;13.502;2022-08-21T09:15:29;100902.00;;;28.00
6454;BMP180;3260;52.438;13.502;2022-08-21T09:18:29;100904.00;;;28.00
6454;BMP180;3260;52.438;13.502;2022-08-21T09:21:13;100911.00;;;28.40
6454;BMP180;3260;52.438;13.502;2022-08-21T09:23:55;100902.00;;;28.90
6454;BMP180;3260;52.438;13.502;2022-08-21T09:26:32;100908.00;;;29.00
6454;BMP180;3260;52.438;13.502;2022-08-21T09:29:05;100914.00;;;28.60
6454;BMP180;3260;52.438;13.502;2022-08-21T09:31:36;100905.00;;;29.20
6454;BMP180;3260;52.438;13.502;2022-08-21T09:34:07;100910.00;;;29.10
6454;BMP180;3260;52.438;13.502;2022-08-21T09:36:41;100908.00;;;28.90
6454;BMP180;3260;52.438;13.502;2022-08-21T09:39:22;100913.00;;;28.60
6454;BMP180;3260;52.438;13.502;2022-08-21T09:41:57;100907.00;;;29.20
6454;BMP180;3260;52.438;13.502;2022-08-21T09:44:32;100911.00;;;28.90
6454;BMP180;3260;52.438;13.502;2022-08-21T09:47:00;100905.00;;;28.80
6454;BMP180;3260;52.438;13.502;2022-08-21T09:49:30;100910.00;;;28.70
6454;BMP180;3260;52.438;13.502;2022-08-21T09:52:00;100909.00;;;28.60
6454;BMP180;3260;52.438;13.502;2022-08-21T09:54:32;100916.00;;;28.40
6454;BMP180;3260;52.438;13.502;2022-08-21T09:57:16;100907.00;;;28.20
6454;BMP180;3260;52.438;13.502;2022-08-21T10:00:20;100918.00;;;28.80
6454;BMP180;3260;52.438;13.502;2022-08-21T10:02:52;100906.00;;;28.80
6454;BMP180;3260;52.438;13.502;2022-08-21T10:05:25;100911.00;;;29.00
6454;BMP180;3260;52.438;13.502;2022-08-21T10:07:53;100906.00;;;29.00
6454;BMP180;3260;52.438;13.502;2022-08-21T10:10:26;100907.00;;;29.00
6454;BMP180;3260;52.438;13.502;2022-08-21T10:13:05;100913.00;;;29.50
6454;BMP180;3260;52.438;13.502;2022-08-21T10:15:51;100919.00;;;30.00
6454;BMP180;3260;52.438;13.502;2022-08-21T10:18:34;100915.00;;;30.40
6454;BMP180;3260;52.438;13.502;2022-08-21T10:21:15;100914.00;;;30.30
6454;BMP180;3260;52.438;13.502;2022-08-21T10:24:05;100918.00;;;30.10
6454;BMP180;3260;52.438;13.502;2022-08-21T10:26:50;100917.00;;;30.10
6454;BMP180;3260;52.438;13.502;2022-08-21T10:29:40;100938.00;;;30.80
6454;BMP180;3260;52.438;13.502;2022-08-21T10:32:31;100919.00;;;30.50
6454;BMP180;3260;52.438;13.502;2022-08-21T10:35:12;100914.00;;;30.40
6454;BMP180;3260;52.438;13.502;2022-08-21T10:38:00;100940.00;;;29.90
6454;BMP180;3260;52.438;13.502;2022-08-21T10:40:42;100939.00;;;30.50
6454;BMP180;3260;52.438;13.502;2022-08-21T10:43:20;100935.00;;;30.20
6454;BMP180;3260;52.438;13.502;2022-08-21T10:46:11;100942.00;;;30.10
6454;BMP180;3260;52.438;13.502;2022-08-21T10:48:50;100940.00;;;30.10
6454;BMP180;3260;52.438;13.502;2022-08-21T10:51:32;100943.00;;;30.50
6454;BMP180;3260;52.438;13.502;2022-08-21T10:54:12;100941.00;;;30.70
6454;BMP180;3260;52.438;13.502;2022-08-21T10:56:57;100946.00;;;31.50
6454;BMP180;3260;52.438;13.502;2022-08-21T10:59:34;100946.00;;;31.30
6454;BMP180;3260;52.438;13.502;2022-08-21T11:02:16;100949.00;;;31.30
6454;BMP180;3260;52.438;13.502;2022-08-21T11:04:56;100949.00;;;31.40
6454;BMP180;3260;52.438;13.502;2022-08-21T11:07:30;100943.00;;;30.40
6454;BMP180;3260;52.438;13.502;2022-08-21T11:10:05;100952.00;;;30.50
6454;BMP180;3260;52.438;13.502;2022-08-21T11:12:44;100948.00;;;30.80
6454;BMP180;3260;52.438;13.502;2022-08-21T11:15:29;100951.00;;;31.10
6454;BMP180;3260;52.438;13.502;2022-08-21T11:18:15;100945.00;;;31.20
6454;BMP180;3260;52.438;13.502;2022-08-21T11:20:54;100935.00;;;31.20
6454;BMP180;3260;52.438;13.502;2022-08-21T11:23:33;100943.00;;;31.60
6454;BMP180;3260;52.438;13.502;2022-08-21T11:26:13;100946.00;;;31.60
6454;BMP180;3260;52.438;13.502;2022-08-21T11:28:48;100950.00;;;31.80
6454;BMP180;3260;52.438;13.502;2022-08-21T11:31:43;100945.00;;;32.10
6454;BMP180;3260;52.438;13.502;2022-08-21T11:34:29;100939.00;;;32.40
6454;BMP180;3260;52.438;13.502;2022-08-21T11:37:07;100938.00;;;32.30
6454;BMP180;3260;52.438;13.502;2022-08-21T11:39:48;100929.00;;;32.80
6454;BMP180;3260;52.438;13.502;2022-08-21T11:42:29;100937.00;;;32.80
6454;BMP180;3260;52.438;13.502;2022-08-21T11:45:14;100935.00;;;34.20
6454;BMP180;3260;52.438;13.502;2022-08-21T11:47:56;100936.00;;;34.40
6454;BMP180;3260;52.438;13.502;2022-08-21T11:50:29;100936.00;;;35.10
6454;BMP180;3260;52.438;13.502;2022-08-21T11:53:10;100939.00;;;36.50
6454;BMP180;3260;52.438;13.502;2022-08-21T11:55:46;100934.00;;;37.00
6454;BMP180;3260;52.438;13.502;2022-08-21T11:58:25;100929.00;;;37.20
6454;BMP180;3260;52.438;13.502;2022-08-21T12:01:00;100913.00;;;37.30
6454;BMP180;3260;52.438;13.502;2022-08-21T12:03:35;100920.00;;;37.50
6454;BMP180;3260;52.438;13.502;2022-08-21T12:06:10;100913.00;;;37.40
6454;BMP180;3260;52.438;13.502;2022-08-21T12:08:42;100923.00;;;38.20
6454;BMP180;3260;52.438;13.502;2022-08-21T12:11:25;100923.00;;;38.10
6454;BMP180;3260;52.438;13.502;2022-08-21T12:14:10;100921.00;;;38.40
6454;BMP180;3260;52.438;13.502;2022-08-21T12:16:42;100919.00;;;40.90
6454;BMP180;3260;52.438;13.502;2022-08-21T12:19:27;100920.00;;;40.60
6454;BMP180;3260;52.438;13.502;2022-08-21T12:22:07;100911.00;;;41.30
6454;BMP180;3260;52.438;13.502;2022-08-21T12:24:40;100920.00;;;43.10
6454;BMP180;3260;52.438;13.502;2022-08-21T12:27:28;100923.00;;;41.90
6454;BMP180;3260;52.438;13.502;2022-08-21T12:30:01;100918.00;;;42.30
6454;BMP180;3260;52.438;13.502;2022-08-21T12:32:43;100907.00;;;42.30
6454;BMP180;3260;52.438;13.502;2022-08-21T12:35:17;100915.00;;;43.40
6454;BMP180;3260;52.438;13.502;2022-08-21T12:37:59;100915.00;;;44.80
6454;BMP180;3260;52.438;13.502;2022-08-21T12:40:37;100917.00;;;45.10
6454;BMP180;3260;52.438;13.502;2022-08-21T12:43:15;100919.00;;;44.00
6454;BMP180;3260;52.438;13.502;2022-08-21T12:45:47;100904.00;;;45.30
6454;BMP180;3260;52.438;13.502;2022-08-21T12:48:22;100923.00;;;47.20
6454;BMP180;3260;52.438;13.502;2022-08-21T12:50:54;100903.00;;;47.20
6454;BMP180;3260;52.438;13.502;2022-08-21T12:53:33;100910.00;;;44.70
6454;BMP180;3260;52.438;13.502;2022-08-21T12:56:10;100906.00;;;46.70
6454;BMP180;3260;52.438;13.502;2022-08-21T12:58:43;100907.00;;;46.80
6454;BMP180;3260;52.438;13.502;2022-08-21T13:01:20;100919.00;;;45.00
6454;BMP180;3260;52.438;13.502;2022-08-21T13:03:51;100909.00;;;46.30
6454;BMP180;3260;52.438;13.502;2022-08-21T13:06:41;100916.00;;;45.30
6454;BMP180;3260;52.438;13.502;2022-08-21T13:09:13;100917.00;;;46.50
6454;BMP180;3260;52.438;13.502;2022-08-21T13:11:47;100916.00;;;46.10
6454;BMP180;3260;52.438;13.502;2022-08-21T13:14:26;100927.00;;;46.10
6454;BMP180;3260;52.438;13.502;2022-08-21T13:16:58;100915.00;;;45.30
6454;BMP180;3260;52.438;13.502;2022-08-21T13:19:27;100913.00;;;45.80
6454;BMP180;3260;52.438;13.502;2022-08-21T13:21:56;100920.00;;;44.60
6454;BMP180;3260;52.438;13.502;2022-08-21T13:24:27;100916.00;;;43.70
6454;BMP180;3260;52.438;13.502;2022-08-21T13:27:25;100913.00;;;43.80
6454;BMP180;3260;52.438;13.502;2022-08-21T13:30:11;100917.00;;;45.90
6454;BMP180;3260;52.438;13.502;2022-08-21T13:32:45;100919.00;;;50.00
6454;BMP180;3260;52.438;13.502;2022-08-21T13:35:18;100918.00;;;50.90
6454;BMP180;3260;52.438;13.502;2022-08-21T13:37:49;100926.00;;;51.20
6454;BMP180;3260;52.438;13.502;2022-08-21T13:40:24;100920.00;;;49.30
6454;BMP180;3260;52.438;13.502;2022-08-21T13:42:54;100930.00;;;51.00
6454;BMP180;3260;52.438;13.502;2022-08-21T13:45:27;100930.00;;;48.60
6454;BMP180;3260;52.438;13.502;2022-08-21T13:48:00;100923.00;;;46.40
6454;BMP180;3260;52.438;13.502;2022-08-21T13:50:35;100919.00;;;47.30
6454;BMP180;3260;52.438;13.502;2022-08-21T13:53:18;100922.00;;;49.50
6454;BMP180;3260;52.438;13.502;2022-08-21T13:55:48;100924.00;;;49.80
6454;BMP180;3260;52.438;13.502;2022-08-21T13:58:27;100919.00;;;49.20
6454;BMP180;3260;52.438;13.502;2022-08-21T14:00:58;100920.00;;;50.10
6454;BMP180;3260;52.438;13.502;2022-08-21T14:03:36;100923.00;;;50.40
6454;BMP180;3260;52.438;13.502;2022-08-21T14:06:12;100921.00;;;50.20
6454;BMP180;3260;52.438;13.502;2022-08-21T14:08:50;100921.00;;;48.00
6454;BMP180;3260;52.438;13.502;2022-08-21T14:11:19;100918.00;;;44.70
6454;BMP180;3260;52.438;13.502;2022-08-21T14:13:57;100920.00;;;42.80
6454;BMP180;3260;52.438;13.502;2022-08-21T14:16:29;100919.00;;;41.70
6454;BMP180;3260;52.438;13.502;2022-08-21T14:19:18;100908.00;;;39.80
6454;BMP180;3260;52.438;13.502;2022-08-21T14:21:47;100908.00;;;38.70
6454;BMP180;3260;52.438;13.502;2022-08-21T14:24:28;100905.00;;;37.20
6454;BMP180;3260;52.438;13.502;2022-08-21T14:27:02;100903.00;;;37.30
6454;BMP180;3260;52.438;13.502;2022-08-21T14:29:37;100906.00;;;36.90
6454;BMP180;3260;52.438;13.502;2022-08-21T14:32:15;100904.00;;;36.40
6454;BMP180;3260;52.438;13.502;2022-08-21T14:34:47;100895.00;;;35.50
6454;BMP180;3260;52.438;13.502;2022-08-21T14:37:15;100893.00;;;35.30
6454;BMP180;3260;52.438;13.502;2022-08-21T14:39:43;100901.00;;;35.80
6454;BMP180;3260;52.438;13.502;2022-08-21T14:42:12;100896.00;;;35.70
6454;BMP180;3260;52.438;13.502;2022-08-21T14:44:42;100890.00;;;35.50
6454;BMP180;3260;52.438;13.502;2022-08-21T14:47:11;100903.00;;;37.20
6454;BMP180;3260;52.438;13.502;2022-08-21T14:49:39;100907.00;;;37.10
6454;BMP180;3260;52.438;13.502;2022-08-21T14:52:07;100902.00;;;36.50
6454;BMP180;3260;52.438;13.502;2022-08-21T14:54:36;100902.00;;;36.70
6454;BMP180;3260;52.438;13.502;2022-08-21T14:57:08;100904.00;;;37.10
6454;BMP180;3260;52.438;13.502;2022-08-21T14:59:37;100898.00;;;37.10
6454;BMP180;3260;52.438;13.502;2022-08-21T15:02:08;100904.00;;;37.00
6454;BMP180;3260;52.438;13.502;2022-08-21T15:04:36;100896.00;;;37.20
6454;BMP180;3260;52.438;13.502;2022-08-21T15:07:04;100903.00;;;37.20
6454;BMP180;3260;52.438;13.502;2022-08-21T15:09:32;100898.00;;;36.90
6454;BMP180;3260;52.438;13.502;2022-08-21T15:12:03;100903.00;;;37.10
6454;BMP180;3260;52.438;13.502;2022-08-21T15:14:35;100902.00;;;36.70
6454;BMP180;3260;52.438;13.502;2022-08-21T15:17:08;100902.00;;;36.10
6454;BMP180;3260;52.438;13.502;2022-08-21T15:19:37;100897.00;;;35.70
6454;BMP180;3260;52.438;13.502;2022-08-21T15:22:06;100900.00;;;35.80
6454;BMP180;3260;52.438;13.502;2022-08-21T15:24:45;100881.00;;;35.50
6454;BMP180;3260;52.438;13.502;2022-08-21T15:27:14;100888.00;;;34.30
6454;BMP180;3260;52.438;13.502;2022-08-21T15:29:44;100891.00;;;33.60
6454;BMP180;3260;52.438;13.502;2022-08-21T15:32:21;100894.00;;;33.20
6454;BMP180;3260;52.438;13.502;2022-08-21T15:34:51;100886.00;;;32.20
6454;BMP180;3260;52.438;13.502;2022-08-21T15:37:20;100884.00;;;32.30
6454;BMP180;3260;52.438;13.502;2022-08-21T15:39:49;100885.00;;;31.90
6454;BMP180;3260;52.438;13.502;2022-08-21T15:42:21;100886.00;;;31.60
6454;BMP180;3260;52.438;13.502;2022-08-21T15:44:50;100891.00;;;31.50
6454;BMP180;3260;52.438;13.502;2022-08-21T15:47:25;100888.00;;;31.10
6454;BMP180;3260;52.438;13.502;2022-08-21T15:49:54;100890.00;;;31.10
6454;BMP180;3260;52.438;13.502;2022-08-21T15:52:22;100888.00;;;31.10
6454;BMP180;3260;52.438;13.502;2022-08-21T15:54:51;100887.00;;;30.50
6454;BMP180;3260;52.438;13.502;2022-08-21T15:57:22;100881.00;;;29.30
6454;BMP180;3260;52.438;13.502;2022-08-21T15:59:56;100882.00;;;29.90
6454;BMP180;3260;52.438;13.502;2022-08-21T16:02:30;100887.00;;;29.50
6454;BMP180;3260;52.438;13.502;2022-08-21T16:04:59;100885.00;;;29.70
6454;BMP180;3260;52.438;13.502;2022-08-21T16:07:28;100873.00;;;29.40
6454;BMP180;3260;52.438;13.502;2022-08-21T16:09:56;100883.00;;;29.70
6454;BMP180;3260;52.438;13.502;2022-08-21T16:12:29;100880.00;;;29.60
6454;BMP180;3260;52.438;13.502;2022-08-21T16:15:01;100878.00;;;29.40
6454;BMP180;3260;52.438;13.502;2022-08-21T16:17:34;100869.00;;;29.20
6454;BMP180;3260;52.438;13.502;2022-08-21T16:20:07;100872.00;;;29.10
6454;BMP180;3260;52.438;13.502;2022-08-21T16:22:36;100877.00;;;28.50
6454;BMP180;3260;52.438;13.502;2022-08-21T16:25:12;100880.00;;;28.80
6454;BMP180;3260;52.438;13.502;2022-08-21T16:27:43;100885.00;;;28.90
6454;BMP180;3260;52.438;13.502;2022-08-21T16:30:12;100877.00;;;28.80
6454;BMP180;3260;52.438;13.502;2022-08-21T16:32:44;100889.00;;;28.80
6454;BMP180;3260;52.438;13.502;2022-08-21T16:35:16;100883.00;;;28.60
6454;BMP180;3260;52.438;13.502;2022-08-21T16:37:45;100880.00;;;28.50
6454;BMP180;3260;52.438;13.502;2022-08-21T16:40:19;100881.00;;;26.50
6454;BMP180;3260;52.438;13.502;2022-08-21T16:42:49;100877.00;;;27.60
6454;BMP180;3260;52.438;13.502;2022-08-21T16:45:19;100880.00;;;27.80
6454;BMP180;3260;52.438;13.502;2022-08-21T16:47:49;100879.00;;;28.00
6454;BMP180;3260;52.438;13.502;2022-08-21T16:50:22;100882.00;;;28.00
6454;BMP180;3260;52.438;13.502;2022-08-21T16:52:51;100871.00;;;27.90
6454;BMP180;3260;52.438;13.502;2022-08-21T16:55:20;100873.00;;;27.60
6454;BMP180;3260;52.438;13.502;2022-08-21T16:57:52;100869.00;;;27.70
6454;BMP180;3260;52.438;13.502;2022-08-21T17:00:21;100862.00;;;27.70
6454;BMP180;3260;52.438;13.502;2022-08-21T17:02:54;100861.00;;;27.90
6454;BMP180;3260;52.438;13.502;2022-08-21T17:05:22;100865.00;;;27.70
6454;BMP180;3260;52.438;13.502;2022-08-21T17:07:50;100861.00;;;27.00
6454;BMP180;3260;52.438;13.502;2022-08-21T17:10:19;100870.00;;;26.80
6454;BMP180;3260;52.438;13.502;2022-08-21T17:12:54;100867.00;;;27.40
6454;BMP180;3260;52.438;13.502;2022-08-21T17:15:35;100875.00;;;27.40
6454;BMP180;3260;52.438;13.502;2022-08-21T17:18:10;100865.00;;;27.50
6454;BMP180;3260;52.438;13.502;2022-08-21T17:20:39;100865.00;;;27.40
6454;BMP180;3260;52.438;13.502;2022-08-21T17:23:08;100873.00;;;26.80
6454;BMP180;3260;52.438;13.502;2022-08-21T17:25:38;100861.00;;;26.30
6454;BMP180;3260;52.438;13.502;2022-08-21T17:28:10;100862.00;;;26.90
6454;BMP180;3260;52.438;13.502;2022-08-21T17:30:41;100878.00;;;27.10
6454;BMP180;3260;52.438;13.502;2022-08-21T17:33:16;100866.00;;;27.00
6454;BMP180;3260;52.438;13.502;2022-08-21T17:35:45;100857.00;;;27.00
6454;BMP180;3260;52.438;13.502;2022-08-21T17:38:13;100870.00;;;26.90
6454;BMP180;3260;52.438;13.502;2022-08-21T17:40:42;100871.00;;;26.80
6454;BMP180;3260;52.438;13.502;2022-08-21T17:43:11;100862.00;;;26.80
6454;BMP180;3260;52.438;13.502;2022-08-21T17:45:41;100872.00;;;26.70
6454;BMP180;3260;52.438;13.502;2022-08-21T17:48:10;100865.00;;;26.50
6454;BMP180;3260;52.438;13.502;2022-08-21T17:50:40;100853.00;;;26.50
6454;BMP180;3260;52.438;13.502;2022-08-21T17:53:08;100863.00;;;26.40
6454;BMP180;3260;52.438;13.502;2022-08-21T17:55:36;100863.00;;;26.10
6454;BMP180;3260;52.438;13.502;2022-08-21T17:58:04;100877.00;;;26.00
6454;BMP180;3260;52.438;13.502;2022-08-21T18:00:35;100871.00;;;25.80
6454;BMP180;3260;52.438;13.502;2022-08-21T18:03:09;100869.00;;;25.60
6454;BMP180;3260;52.438;13.502;2022-08-21T18:05:42;100870.00;;;25.40
6454;BMP180;3260;52.438;13.502;2022-08-21T18:08:10;100870.00;;;25.30
6454;BMP180;3260;52.438;13.502;2022-08-21T18:10:43;100878.00;;;25.10
6454;BMP180;3260;52.438;13.502;2022-08-21T18:13:16;100876.00;;;24.80
6454;BMP180;3260;52.438;13.502;2022-08-21T18:15:49;100883.00;;;24.70
6454;BMP180;3260;52.438;13.502;2022-08-21T18:18:18;100880.00;;;24.50
6454;BMP180;3260;52.438;13.502;2022-08-21T18:20:49;100864.00;;;24.30
6454;BMP180;3260;52.438;13.502;2022-08-21T18:23:18;100889.00;;;24.20
6454;BMP180;3260;52.438;13.502;2022-08-21T18:26:07;100890.00;;;24.00
6454;BMP180;3260;52.438;13.502;2022-08-21T18:28:36;100890.00;;;23.80
6454;BMP180;3260;52.438;13.502;2022-08-21T18:31:07;100905.00;;;23.60
6454;BMP180;3260;52.438;13.502;2022-08-21T18:33:37;100898.00;;;23.40
6454;BMP180;3260;52.438;13.502;2022-08-21T18:36:26;100897.00;;;23.20
6454;BMP180;3260;52.438;13.502;2022-08-21T18:38:55;100899.00;;;23.10
6454;BMP180;3260;52.438;13.502;2022-08-21T18:41:45;100908.00;;;22.90
6454;BMP180;3260;52.438;13.502;2022-08-21T18:44:16;100906.00;;;22.70
6454;BMP180;3260;52.438;13.502;2022-08-21T18:46:50;100902.00;;;22.60
6454;BMP180;3260;52.438;13.502;2022-08-21T18:49:19;100900.00;;;22.50